createdAt,value
2019-02-16T00:01:16.917Z,3.00
2019-02-16T00:03:46.171Z,3.00
2019-02-16T00:06:15.727Z,2.90
2019-02-16T00:08:45.035Z,2.80
2019-02-16T00:11:14.278Z,2.80
2019-02-16T00:13:43.941Z,2.80
2019-02-16T00:16:13.215Z,3.00
2019-02-16T00:18:42.543Z,3.00
2019-02-16T00:21:11.805Z,3.30
2019-02-16T00:23:41.141Z,3.30
2019-02-16T00:26:10.579Z,3.30
2019-02-16T00:28:39.943Z,3.50
2019-02-16T00:31:09.268Z,3.50
2019-02-16T00:33:38.718Z,3.60
2019-02-16T00:36:08.363Z,3.60
2019-02-16T00:38:38.135Z,3.80
2019-02-16T00:41:07.713Z,3.70
2019-02-16T00:43:37.381Z,3.70
2019-02-16T00:46:06.642Z,3.70
2019-02-16T00:48:35.988Z,3.60
2019-02-16T00:51:13.340Z,3.60
2019-02-16T00:53:36.535Z,3.70
2019-02-16T00:56:05.891Z,3.70
2019-02-16T00:58:35.221Z,3.70
2019-02-16T01:01:04.541Z,3.80
2019-02-16T01:03:34.153Z,3.60
2019-02-16T01:06:03.435Z,3.50
2019-02-16T01:08:32.833Z,3.30
2019-02-16T01:11:02.166Z,3.30
2019-02-16T01:13:32.020Z,3.30
2019-02-16T01:16:01.371Z,3.30
2019-02-16T01:18:30.973Z,3.20
2019-02-16T01:21:00.289Z,3.20
2019-02-16T01:23:29.644Z,3.10
2019-02-16T01:25:59.014Z,3.10
2019-02-16T01:28:28.648Z,3.00
2019-02-16T01:30:58.002Z,2.80
2019-02-16T01:33:27.804Z,2.60
2019-02-16T01:35:57.416Z,2.60
2019-02-16T01:38:27.326Z,2.60
2019-02-16T01:40:57.194Z,2.50
2019-02-16T01:43:27.116Z,2.40
2019-02-16T01:45:56.372Z,2.50
2019-02-16T01:48:25.723Z,2.70
2019-02-16T01:50:55.278Z,2.80
2019-02-16T01:53:24.562Z,2.80
2019-02-16T01:55:53.824Z,2.70
2019-02-16T01:58:23.160Z,2.50
2019-02-16T02:00:52.499Z,2.50
2019-02-16T02:03:21.848Z,2.40
2019-02-16T02:05:51.629Z,2.40
2019-02-16T02:08:20.943Z,2.40
2019-02-16T02:10:50.478Z,2.40
2019-02-16T02:13:19.759Z,2.30
2019-02-16T02:15:49.041Z,2.20
2019-02-16T02:18:18.959Z,2.00
2019-02-16T02:20:48.633Z,2.00
2019-02-16T02:23:18.230Z,2.00
2019-02-16T02:25:47.580Z,2.10
2019-02-16T02:28:16.942Z,2.20
2019-02-16T02:30:46.751Z,2.40
2019-02-16T02:33:16.373Z,2.40
2019-02-16T02:35:45.990Z,2.50
2019-02-16T02:38:15.574Z,2.40
2019-02-16T02:40:44.830Z,2.40
2019-02-16T02:43:14.118Z,2.30
2019-02-16T02:45:43.372Z,2.30
2019-02-16T02:48:13.016Z,2.20
2019-02-16T02:50:42.948Z,2.20
2019-02-16T02:53:12.373Z,2.10
2019-02-16T02:55:41.588Z,2.00
2019-02-16T02:58:11.116Z,2.10
2019-02-16T03:00:40.760Z,2.10
2019-02-16T03:03:10.007Z,2.00
2019-02-16T03:05:39.455Z,2.00
2019-02-16T03:08:08.736Z,2.00
2019-02-16T03:10:38.326Z,2.00
2019-02-16T03:13:07.571Z,2.10
2019-02-16T03:15:36.830Z,1.90
2019-02-16T03:18:06.077Z,1.80
2019-02-16T03:20:35.732Z,1.80
2019-02-16T03:23:13.341Z,1.80
2019-02-16T03:25:48.526Z,1.80
2019-02-16T03:28:34.386Z,1.90
2019-02-16T03:31:40.082Z,1.70
2019-02-16T03:34:14.806Z,1.60
2019-02-16T03:37:36.673Z,1.60
2019-02-16T03:40:06.372Z,1.70
2019-02-16T03:42:36.253Z,1.60
2019-02-16T03:45:06.003Z,1.60
2019-02-16T03:47:35.595Z,1.50
2019-02-16T03:50:05.001Z,1.50
2019-02-16T03:52:34.531Z,1.60
2019-02-16T03:55:03.802Z,1.50
2019-02-16T03:57:33.133Z,1.50
2019-02-16T04:00:02.759Z,1.40
2019-02-16T04:02:32.080Z,1.50
2019-02-16T04:05:01.354Z,1.50
2019-02-16T04:07:30.618Z,1.60
2019-02-16T04:09:59.890Z,1.70
2019-02-16T04:12:29.393Z,1.70
2019-02-16T04:14:59.012Z,1.60
2019-02-16T04:17:28.538Z,1.50
2019-02-16T04:19:57.807Z,1.40
2019-02-16T04:22:27.061Z,1.30
2019-02-16T04:24:56.322Z,1.20
2019-02-16T04:27:25.649Z,1.20
2019-02-16T04:29:54.916Z,1.20
2019-02-16T04:32:24.168Z,1.10
2019-02-16T04:34:53.424Z,1.20
2019-02-16T04:37:22.676Z,1.10
2019-02-16T04:39:52.272Z,1.10
2019-02-16T04:42:21.833Z,1.10
2019-02-16T04:44:51.114Z,1.20
2019-02-16T04:47:20.432Z,1.20
2019-02-16T04:49:50.169Z,1.20
2019-02-16T04:52:19.490Z,1.20
2019-02-16T04:54:49.145Z,1.20
2019-02-16T04:57:18.371Z,1.20
2019-02-16T04:59:48.138Z,1.20
2019-02-16T05:02:17.863Z,1.20
2019-02-16T05:04:47.368Z,1.10
2019-02-16T05:07:17.033Z,1.10
2019-02-16T05:09:46.624Z,1.10
2019-02-16T05:12:15.883Z,1.10
2019-02-16T05:14:45.112Z,1.10
2019-02-16T05:17:14.360Z,1.10
2019-02-16T05:19:44.269Z,1.20
2019-02-16T05:22:13.795Z,1.30
2019-02-16T05:24:43.131Z,1.30
2019-02-16T05:27:12.671Z,1.30
2019-02-16T05:29:42.321Z,1.30
2019-02-16T05:32:12.202Z,1.30
2019-02-16T05:34:41.431Z,1.20
2019-02-16T05:37:10.981Z,1.20
2019-02-16T05:39:40.225Z,1.10
2019-02-16T05:42:10.346Z,0.90
2019-02-16T05:44:39.586Z,0.80
2019-02-16T05:47:08.856Z,0.80
2019-02-16T05:49:38.164Z,0.90
2019-02-16T05:52:07.708Z,0.80
2019-02-16T05:54:37.578Z,0.80
2019-02-16T05:57:07.117Z,0.80
2019-02-16T05:59:36.451Z,0.80
2019-02-16T06:02:05.811Z,0.80
2019-02-16T06:04:35.057Z,0.80
2019-02-16T06:07:04.322Z,0.90
2019-02-16T06:09:33.948Z,0.90
2019-02-16T06:12:03.235Z,0.90
2019-02-16T06:14:32.816Z,1.10
2019-02-16T06:17:02.061Z,1.00
2019-02-16T06:19:31.727Z,1.00
2019-02-16T06:22:00.983Z,1.00
2019-02-16T06:24:30.581Z,1.00
2019-02-16T06:26:59.823Z,0.90
2019-02-16T06:29:29.286Z,0.90
2019-02-16T06:31:58.735Z,0.90
2019-02-16T06:34:28.322Z,0.80
2019-02-16T06:36:57.904Z,0.80
2019-02-16T06:39:27.146Z,0.70
2019-02-16T06:41:56.383Z,0.70
2019-02-16T06:44:25.967Z,0.70
2019-02-16T06:46:55.304Z,0.70
2019-02-16T06:49:24.532Z,0.80
2019-02-16T06:51:53.804Z,0.80
2019-02-16T06:54:23.119Z,0.80
2019-02-16T06:57:20.552Z,0.80
2019-02-16T06:59:49.862Z,0.90
2019-02-16T07:02:19.909Z,1.00
2019-02-16T07:04:49.251Z,1.20
2019-02-16T07:07:18.534Z,1.20
2019-02-16T07:09:47.847Z,1.10
2019-02-16T07:12:17.151Z,1.20
2019-02-16T07:14:46.381Z,1.30
2019-02-16T07:17:34.688Z,1.20
2019-02-16T07:20:04.126Z,1.30
2019-02-16T07:22:33.497Z,1.30
2019-02-16T07:25:02.950Z,1.30
2019-02-16T07:27:32.285Z,1.40
2019-02-16T07:30:01.593Z,1.50
2019-02-16T07:32:30.880Z,1.70
2019-02-16T07:35:00.332Z,1.70
2019-02-16T07:37:29.975Z,1.90
2019-02-16T07:39:59.199Z,1.90
2019-02-16T07:42:30.100Z,2.00
2019-02-16T07:45:21.153Z,2.20
2019-02-16T07:48:10.666Z,2.30
2019-02-16T07:50:45.214Z,2.30
2019-02-16T07:53:31.597Z,2.40
2019-02-16T07:56:06.011Z,2.50
2019-02-16T07:58:40.509Z,2.50
2019-02-16T08:01:35.215Z,2.60
2019-02-16T08:04:26.971Z,2.70
2019-02-16T08:07:15.305Z,2.70
2019-02-16T08:10:10.007Z,2.80
2019-02-16T08:13:10.237Z,3.00
2019-02-16T08:15:54.856Z,3.00
2019-02-16T08:18:52.874Z,3.20
2019-02-16T08:21:35.210Z,3.30
2019-02-16T08:24:15.003Z,3.40
2019-02-16T08:27:03.300Z,3.40
2019-02-16T08:29:39.836Z,3.70
2019-02-16T08:32:17.983Z,3.70
2019-02-16T08:35:09.759Z,3.80
2019-02-16T08:38:00.879Z,3.90
2019-02-16T08:40:47.911Z,4.00
2019-02-16T08:43:34.889Z,4.20
2019-02-16T08:46:29.237Z,4.30
2019-02-16T08:49:18.034Z,4.40
2019-02-16T08:52:10.611Z,4.50
2019-02-16T08:54:49.822Z,4.60
2019-02-16T08:57:38.119Z,4.70
2019-02-16T09:00:21.204Z,4.70
2019-02-16T09:03:08.772Z,4.80
2019-02-16T09:06:00.083Z,4.90
2019-02-16T09:08:57.687Z,5.00
2019-02-16T09:11:45.209Z,5.10
2019-02-16T09:14:33.217Z,5.30
2019-02-16T09:17:20.302Z,5.40
2019-02-16T09:20:01.989Z,5.60
2019-02-16T09:22:46.296Z,5.70
2019-02-16T09:25:34.601Z,5.70
2019-02-16T09:28:23.234Z,5.90
2019-02-16T09:31:02.663Z,6.10
2019-02-16T09:33:49.350Z,6.20
2019-02-16T09:36:33.943Z,6.30
2019-02-16T09:39:18.513Z,6.50
2019-02-16T09:41:56.476Z,6.60
2019-02-16T09:44:50.113Z,6.70
2019-02-16T09:47:31.234Z,6.90
2019-02-16T09:50:21.594Z,7.10
2019-02-16T09:53:10.161Z,7.10
2019-02-16T09:56:01.474Z,7.30
2019-02-16T09:58:41.821Z,7.40
2019-02-16T10:01:29.405Z,7.50
2019-02-16T10:04:26.737Z,7.60
2019-02-16T10:07:15.024Z,7.70
2019-02-16T10:10:04.594Z,7.90
2019-02-16T10:13:10.851Z,7.90
2019-02-16T10:16:04.768Z,8.10
2019-02-16T10:18:53.499Z,8.30
2019-02-16T10:21:48.154Z,8.40
2019-02-16T10:24:54.848Z,8.50
2019-02-16T10:27:41.889Z,8.70
2019-02-16T10:30:34.679Z,8.80
2019-02-16T10:33:10.312Z,8.90
2019-02-16T10:35:54.608Z,9.10
2019-02-16T10:38:49.198Z,9.20
2019-02-16T10:41:25.988Z,9.40
2019-02-16T10:44:12.900Z,9.50
2019-02-16T10:47:09.664Z,9.60
2019-02-16T10:50:01.246Z,9.60
2019-02-16T10:52:50.169Z,9.70
2019-02-16T10:55:53.620Z,9.90
2019-02-16T10:58:45.491Z,10.00
2019-02-16T11:01:51.987Z,10.10
2019-02-16T11:04:40.296Z,10.20
2019-02-16T11:07:18.125Z,10.30
2019-02-16T11:09:58.988Z,10.30
2019-02-16T11:12:50.062Z,10.30
2019-02-16T11:15:38.396Z,10.40
2019-02-16T11:18:16.898Z,10.50
2019-02-16T11:21:04.012Z,10.60
2019-02-16T11:23:40.333Z,10.60
2019-02-16T11:26:27.460Z,10.70
2019-02-16T11:29:16.304Z,10.80
2019-02-16T11:32:08.227Z,11.00
2019-02-16T11:34:48.698Z,11.00
2019-02-16T11:37:36.434Z,11.10
2019-02-16T11:40:14.864Z,11.10
2019-02-16T11:42:52.172Z,11.20
2019-02-16T11:45:39.147Z,11.20
2019-02-16T11:48:40.694Z,11.30
2019-02-16T11:51:44.162Z,11.40
2019-02-16T11:54:22.603Z,11.50
2019-02-16T11:57:09.461Z,11.70
2019-02-16T12:00:00.865Z,11.70
2019-02-16T12:02:42.400Z,11.70
2019-02-16T12:05:37.192Z,11.90
2019-02-16T12:08:10.932Z,12.10
2019-02-16T12:11:01.550Z,12.20
2019-02-16T12:13:53.266Z,12.20
2019-02-16T12:16:40.711Z,12.20
2019-02-16T12:19:30.560Z,12.50
2019-02-16T12:22:34.337Z,12.40
2019-02-16T12:25:14.969Z,12.50
2019-02-16T12:28:01.911Z,12.60
2019-02-16T12:30:49.196Z,12.70
2019-02-16T12:33:36.283Z,12.80
2019-02-16T12:36:24.577Z,12.90
2019-02-16T12:39:04.869Z,12.90
2019-02-16T12:42:07.223Z,12.90
2019-02-16T12:45:01.536Z,13.00
2019-02-16T12:47:50.126Z,13.00
2019-02-16T12:50:36.970Z,13.10
2019-02-16T12:53:25.276Z,13.30
2019-02-16T12:56:16.863Z,13.40
2019-02-16T12:59:17.242Z,13.40
2019-02-16T13:01:58.366Z,13.50
2019-02-16T13:04:44.087Z,13.50
2019-02-16T13:07:32.423Z,13.60
2019-02-16T13:10:23.640Z,13.70
2019-02-16T13:13:23.877Z,13.70
2019-02-16T13:16:13.771Z,13.70
2019-02-16T13:19:17.012Z,13.90
2019-02-16T13:22:14.162Z,13.70
2019-02-16T13:24:58.067Z,13.70
2019-02-16T13:28:01.191Z,13.90
2019-02-16T13:30:55.842Z,13.90
2019-02-16T13:33:39.864Z,13.80
2019-02-16T13:36:31.273Z,13.80
2019-02-16T13:39:22.983Z,13.70
2019-02-16T13:42:11.812Z,13.60
2019-02-16T13:45:00.381Z,13.70
2019-02-16T13:47:45.240Z,13.80
2019-02-16T13:50:29.018Z,14.00
2019-02-16T13:53:17.568Z,14.00
2019-02-16T13:56:00.489Z,13.80
2019-02-16T13:58:54.916Z,13.80
2019-02-16T14:01:43.213Z,13.80
2019-02-16T14:04:30.882Z,13.70
2019-02-16T14:07:31.359Z,13.80
2019-02-16T14:10:25.734Z,13.80
2019-02-16T14:13:11.494Z,13.90
2019-02-16T14:16:12.305Z,14.00
2019-02-16T14:18:41.638Z,14.10
2019-02-16T14:21:11.179Z,14.10
2019-02-16T14:23:40.821Z,14.20
2019-02-16T14:26:10.452Z,14.20
2019-02-16T14:28:40.105Z,14.20
2019-02-16T14:31:09.514Z,14.10
2019-02-16T14:33:38.974Z,14.20
2019-02-16T14:36:08.236Z,14.20
2019-02-16T14:39:05.360Z,14.20
2019-02-16T14:41:34.703Z,14.20
2019-02-16T14:44:03.975Z,14.30
2019-02-16T14:46:33.341Z,14.30
2019-02-16T14:49:02.654Z,14.20
2019-02-16T14:51:32.857Z,14.30
2019-02-16T14:54:02.114Z,14.20
2019-02-16T14:56:31.738Z,14.20
2019-02-16T14:59:01.551Z,14.20
2019-02-16T15:01:30.818Z,14.10
2019-02-16T15:04:00.098Z,13.90
2019-02-16T15:06:30.913Z,13.70
2019-02-16T15:09:00.318Z,13.70
2019-02-16T15:11:29.656Z,13.80
2019-02-16T15:13:59.034Z,13.90
2019-02-16T15:16:28.458Z,13.80
2019-02-16T15:18:58.056Z,13.90
2019-02-16T15:21:27.342Z,13.90
2019-02-16T15:23:56.660Z,13.90
2019-02-16T15:26:28.543Z,13.80
2019-02-16T15:28:58.608Z,13.70
2019-02-16T15:31:28.563Z,13.80
2019-02-16T15:33:59.305Z,13.80
2019-02-16T15:36:32.379Z,13.80
2019-02-16T15:39:06.450Z,13.70
2019-02-16T15:41:35.736Z,13.80
2019-02-16T15:44:05.198Z,13.60
2019-02-16T15:46:34.751Z,13.40
2019-02-16T15:49:04.076Z,13.50
2019-02-16T15:51:33.494Z,13.40
2019-02-16T15:54:02.784Z,13.30
2019-02-16T15:56:32.392Z,13.20
2019-02-16T15:59:01.743Z,13.10
2019-02-16T16:01:31.099Z,13.00
2019-02-16T16:04:00.519Z,13.00
2019-02-16T16:06:30.162Z,13.00
2019-02-16T16:09:18.484Z,12.80
2019-02-16T16:12:02.139Z,12.80
2019-02-16T16:14:53.816Z,12.70
2019-02-16T16:17:36.137Z,12.50
2019-02-16T16:20:12.789Z,12.40
2019-02-16T16:23:01.090Z,12.30
2019-02-16T16:25:52.196Z,12.20
2019-02-16T16:28:42.131Z,12.20
2019-02-16T16:31:30.720Z,12.10
2019-02-16T16:34:22.136Z,11.90
2019-02-16T16:37:16.858Z,11.70
2019-02-16T16:40:08.025Z,11.50
2019-02-16T16:42:56.618Z,11.20
2019-02-16T16:45:41.636Z,11.10
2019-02-16T16:48:40.316Z,11.10
2019-02-16T16:51:26.725Z,11.00
2019-02-16T16:54:01.633Z,10.70
2019-02-16T16:56:51.277Z,10.60
2019-02-16T16:59:48.458Z,10.40
2019-02-16T17:02:48.658Z,10.20
2019-02-16T17:05:43.327Z,10.30
2019-02-16T17:08:23.304Z,10.20
2019-02-16T17:11:03.436Z,10.00
2019-02-16T17:13:52.074Z,9.80
2019-02-16T17:16:32.838Z,9.50
2019-02-16T17:19:18.517Z,9.30
2019-02-16T17:22:12.654Z,9.30
2019-02-16T17:24:59.686Z,9.30
2019-02-16T17:27:48.856Z,9.00
2019-02-16T17:30:28.070Z,9.00
2019-02-16T17:33:07.383Z,9.20
2019-02-16T17:36:08.266Z,9.10
2019-02-16T17:38:59.607Z,9.10
2019-02-16T17:41:53.942Z,9.00
2019-02-16T17:44:40.679Z,8.80
2019-02-16T17:47:35.745Z,8.50
2019-02-16T17:50:25.150Z,8.40
2019-02-16T17:53:16.735Z,8.40
2019-02-16T17:56:11.280Z,8.60
2019-02-16T17:58:52.619Z,8.60
2019-02-16T18:01:34.023Z,8.40
2019-02-16T18:04:25.194Z,8.30
2019-02-16T18:07:12.205Z,8.30
2019-02-16T18:10:00.542Z,8.20
2019-02-16T18:12:47.494Z,8.10
2019-02-16T18:15:34.270Z,8.10
2019-02-16T18:18:21.179Z,8.30
2019-02-16T18:21:08.125Z,8.30
2019-02-16T18:23:50.997Z,8.20
2019-02-16T18:26:38.220Z,7.90
2019-02-16T18:29:38.593Z,7.80
2019-02-16T18:32:31.546Z,7.50
2019-02-16T18:35:38.715Z,7.60
2019-02-16T18:38:23.908Z,7.40
2019-02-16T18:41:23.945Z,7.70
2019-02-16T18:44:20.818Z,7.50
2019-02-16T18:47:15.127Z,7.40
2019-02-16T18:50:10.014Z,7.10
2019-02-16T18:52:58.301Z,7.10
2019-02-16T18:55:46.609Z,7.10
2019-02-16T18:58:33.372Z,6.90
2019-02-16T19:01:24.775Z,7.00
2019-02-16T19:04:11.471Z,7.00
2019-02-16T19:06:56.420Z,6.90
2019-02-16T19:09:47.541Z,6.70
2019-02-16T19:12:48.057Z,6.70
2019-02-16T19:15:42.293Z,6.90
2019-02-16T19:18:48.517Z,6.90
2019-02-16T19:21:43.840Z,6.90
2019-02-16T19:24:35.242Z,7.00
2019-02-16T19:27:16.711Z,6.90
2019-02-16T19:30:00.554Z,6.70
2019-02-16T19:32:47.279Z,6.60
2019-02-16T19:35:53.814Z,6.40
2019-02-16T19:38:48.189Z,6.30
2019-02-16T19:41:39.231Z,6.20
2019-02-16T19:44:25.924Z,6.20
2019-02-16T19:47:10.161Z,6.10
2019-02-16T19:50:01.245Z,6.00
2019-02-16T19:52:52.231Z,6.10
2019-02-16T19:55:38.933Z,6.10
2019-02-16T19:58:33.567Z,5.90
2019-02-16T20:01:22.154Z,5.90
2019-02-16T20:04:02.685Z,5.80
2019-02-16T20:06:53.662Z,5.70
2019-02-16T20:09:31.580Z,5.60
2019-02-16T20:12:13.017Z,5.50
2019-02-16T20:15:04.083Z,5.70
2019-02-16T20:17:52.709Z,5.60
2019-02-16T20:20:29.981Z,5.60
2019-02-16T20:23:19.702Z,5.70
2019-02-16T20:26:02.405Z,5.80
2019-02-16T20:28:48.670Z,6.10
2019-02-16T20:31:28.106Z,6.20
2019-02-16T20:34:16.649Z,6.00
2019-02-16T20:36:59.686Z,6.00
2019-02-16T20:39:57.721Z,5.90
2019-02-16T20:42:46.051Z,5.80
2019-02-16T20:45:36.339Z,5.80
2019-02-16T20:48:32.276Z,5.80
2019-02-16T20:51:38.832Z,5.90
2019-02-16T20:54:30.133Z,5.90
2019-02-16T20:57:17.859Z,5.80
2019-02-16T21:00:06.784Z,5.70
2019-02-16T21:03:04.237Z,5.80
2019-02-16T21:05:46.916Z,5.70
2019-02-16T21:08:41.612Z,5.50
2019-02-16T21:11:32.644Z,5.40
2019-02-16T21:14:17.114Z,5.40
2019-02-16T21:17:08.234Z,5.40
2019-02-16T21:19:59.337Z,5.70
2019-02-16T21:22:55.814Z,5.70
2019-02-16T21:25:44.352Z,5.90
2019-02-16T21:28:24.429Z,5.90
2019-02-16T21:31:04.054Z,5.80
2019-02-16T21:33:53.318Z,5.70
2019-02-16T21:36:42.763Z,5.70
2019-02-16T21:39:29.684Z,5.70
2019-02-16T21:42:23.899Z,5.70
2019-02-16T21:45:12.237Z,5.60
2019-02-16T21:48:02.764Z,5.50
2019-02-16T21:50:44.631Z,5.40
2019-02-16T21:53:21.954Z,5.30
2019-02-16T21:56:07.987Z,5.40
2019-02-16T21:58:54.971Z,5.30
2019-02-16T22:01:43.338Z,5.10
2019-02-16T22:04:34.595Z,5.10
2019-02-16T22:07:22.897Z,4.90
2019-02-16T22:10:14.127Z,4.90
2019-02-16T22:13:11.987Z,5.00
2019-02-16T22:15:41.274Z,5.00
2019-02-16T22:18:10.635Z,4.90
2019-02-16T22:20:40.299Z,4.90
2019-02-16T22:23:09.656Z,4.80
2019-02-16T22:25:39.320Z,4.70
2019-02-16T22:28:17.988Z,4.80
2019-02-16T22:30:40.265Z,4.80
2019-02-16T22:33:09.852Z,5.00
2019-02-16T22:35:39.493Z,4.90
2019-02-16T22:38:09.147Z,5.00
2019-02-16T22:40:39.082Z,5.10
2019-02-16T22:43:08.338Z,4.90
2019-02-16T22:45:38.247Z,5.00
2019-02-16T22:48:07.686Z,5.00
2019-02-16T22:50:39.721Z,4.90
2019-02-16T22:53:08.514Z,5.00
2019-02-16T22:55:37.860Z,4.80
2019-02-16T22:58:07.737Z,4.70
2019-02-16T23:00:48.177Z,4.60
2019-02-16T23:03:17.573Z,4.60
2019-02-16T23:05:46.947Z,4.60
2019-02-16T23:08:16.866Z,4.60
2019-02-16T23:10:46.503Z,4.60
2019-02-16T23:13:15.841Z,4.60
2019-02-16T23:15:45.440Z,4.50
2019-02-16T23:18:14.761Z,4.40
2019-02-16T23:20:44.045Z,4.40
2019-02-16T23:23:13.291Z,4.40
2019-02-16T23:25:42.690Z,4.40
2019-02-16T23:28:12.046Z,4.30
2019-02-16T23:30:41.480Z,4.20
2019-02-16T23:33:11.178Z,4.20
2019-02-16T23:35:40.510Z,4.20
2019-02-16T23:38:10.153Z,4.40
2019-02-16T23:40:40.098Z,4.30
2019-02-16T23:43:09.763Z,4.40
2019-02-16T23:45:39.307Z,4.50
2019-02-16T23:48:08.971Z,4.50
2019-02-16T23:50:38.348Z,4.50
2019-02-16T23:53:07.776Z,4.50
2019-02-16T23:55:37.153Z,4.50
2019-02-16T23:58:06.484Z,4.50
